Terminal Aerodrome Forecast
Issued by NWS

Current Version | Previous Version | Graphics & Text | Print | Product List | Glossary On
Versions: 1 2 3 4 5 6 7 8 9 10 11 12 13 14 15 16 17 18 19 20 21 22 23 24 25 26 27
000
FTUS41 KILN 172019 AAA
TAFLCK
TAF AMD
KLCK 172019Z 1720/1818 06010KT P6SM VCSH BKN050
      TEMPO 1720/1723 -SHRA
     FM180900 07012KT P6SM OVC025
     FM181200 07011KT P6SM VCSH OVC018
     FM181500 08010KT 5SM -SHRA BR OVC025=

USA.gov is the U.S. government's official web portal to all federal, state and local government web resources and services.